Exeter, Illinois
Current Conditions -  °F | °C
As of 10:15 PM on Tuesday 21 Oct 2014 (Local Time) from KIJX Reporting Station
Clear Clear  
Wind Chill: 42°   Ceiling: Unl
Heat Index: 47°   Visibility: 10mi
Dew Point: 41°   Wind: 9mph
Humidity: 79%   Direction: 80°E
Pressure: 30.23"   Gusts: NA
Location:  39.7355°N, 90.519°W
Report Text: KIJX 220315Z AUTO 08008KT 10SM CLR 08/05 A3023 RMK AO2 T00820048
Loading
Personal Weather Stations






























Interactive Weather Map
Tropical Storm Tracking
New forecast layout! Learn more

10-Day Weather Forecast

Advertisements
Track Severe Weather on mobile